Time;durP1;ratioP1;P1;durP2;ratioP2;P2;SDS_P1;SDS_P2;PMS_P1;PMS_P2;Temp;Humidity;BMP_temperature;BMP_pressure;BME280_temperature;BME280_humidity;BME280_pressure;Samples;Min_cycle;Max_cycle;Signal;HPM_P1;HPM_P2
2023/07/01 00:02:14;;;;;;;6.37;4.30;;;;;;;14.82;100.00;98550.34;5123284;27;20194;-76
2023/07/01 00:04:43;;;;;;;5.67;4.57;;;;;;;14.78;100.00;98551.63;5124689;27;20221;-77
2023/07/01 00:07:12;;;;;;;6.33;4.30;;;;;;;14.85;100.00;98552.72;5125314;27;20216;-76
2023/07/01 00:09:40;;;;;;;5.73;4.50;;;;;;;14.80;100.00;98544.31;5123903;27;20220;-76
2023/07/01 00:12:09;;;;;;;7.47;4.33;;;;;;;14.81;100.00;98545.16;5125407;27;20273;-76
2023/07/01 00:14:37;;;;;;;7.33;4.37;;;;;;;14.79;100.00;98547.13;5126260;27;20186;-77
2023/07/01 00:17:09;;;;;;;7.53;5.37;;;;;;;14.91;100.00;98547.81;5122744;27;20245;-76
2023/07/01 00:19:39;;;;;;;8.27;5.63;;;;;;;14.88;100.00;98544.47;5128041;27;20281;-76
2023/07/01 00:22:08;;;;;;;12.23;6.63;;;;;;;14.78;100.00;98540.94;5122307;27;20201;-76
2023/07/01 00:24:37;;;;;;;9.83;6.27;;;;;;;14.76;100.00;98545.56;5119704;27;20198;-76
2023/07/01 00:27:07;;;;;;;10.57;6.67;;;;;;;14.85;100.00;98541.22;5123442;27;20649;-77
2023/07/01 00:29:35;;;;;;;13.17;6.23;;;;;;;14.76;100.00;98542.06;5123485;27;20190;-76
2023/07/01 00:32:04;;;;;;;9.87;5.63;;;;;;;14.13;100.00;98542.34;5124867;27;20193;-76
2023/07/01 00:34:32;;;;;;;8.77;5.53;;;;;;;14.14;100.00;98548.50;5079096;27;20190;-77
2023/07/01 00:37:04;;;;;;;13.17;5.93;;;;;;;14.34;100.00;98547.59;5122667;27;20228;-77
2023/07/01 00:39:32;;;;;;;13.60;6.73;;;;;;;14.35;100.00;98551.94;5128530;27;20194;-76
2023/07/01 00:42:00;;;;;;;13.17;5.60;;;;;;;14.16;100.00;98539.41;5120985;27;20743;-76
2023/07/01 00:44:29;;;;;;;12.90;6.00;;;;;;;14.31;100.00;98542.53;5126118;27;20198;-76
2023/07/01 00:46:58;;;;;;;11.40;4.83;;;;;;;13.50;100.00;98532.81;5126667;27;20214;-75
2023/07/01 00:49:27;;;;;;;9.43;5.23;;;;;;;13.88;100.00;98529.50;5127448;27;20202;-76
2023/07/01 00:51:59;;;;;;;9.97;5.30;;;;;;;13.81;100.00;98528.38;5093134;27;20186;-77
2023/07/01 00:54:30;;;;;;;7.43;5.20;;;;;;;14.02;100.00;98519.34;5073854;28;20200;-76
2023/07/01 00:57:01;;;;;;;15.83;9.43;;;;;;;13.91;100.00;98521.25;5063415;28;20212;-76
2023/07/01 00:59:30;;;;;;;10.93;7.53;;;;;;;13.84;100.00;98518.28;5064661;28;20189;-77
2023/07/01 01:02:06;;;;;;;9.70;5.97;;;;;;;14.20;100.00;98514.19;5068851;28;20260;-77
2023/07/01 01:04:45;;;;;;;6.90;5.47;;;;;;;14.25;100.00;98519.94;5069885;28;20239;-77
2023/07/01 01:07:21;;;;;;;12.67;8.00;;;;;;;13.95;100.00;98512.84;5059970;28;20197;-77
2023/07/01 01:10:00;;;;;;;13.07;7.20;;;;;;;13.99;100.00;98497.44;5067461;28;20200;-77
2023/07/01 01:12:30;;;;;;;12.67;6.73;;;;;;;14.07;100.00;98499.44;5034711;28;20219;-77
2023/07/01 01:15:02;;;;;;;12.10;6.30;;;;;;;14.12;100.00;98505.22;5065173;28;20207;-78
2023/07/01 01:17:35;;;;;;;10.60;5.83;;;;;;;14.06;100.00;98497.75;5067500;28;20216;-77
2023/07/01 01:20:13;;;;;;;10.23;5.93;;;;;;;13.97;100.00;98494.06;5064791;28;20224;-78
2023/07/01 01:22:56;;;;;;;8.50;5.60;;;;;;;13.86;100.00;98489.72;5072164;28;20199;-77
2023/07/01 01:25:31;;;;;;;9.63;5.17;;;;;;;14.01;100.00;98493.69;5008786;28;20226;-77
2023/07/01 01:28:06;;;;;;;9.43;5.67;;;;;;;13.99;100.00;98490.31;4974656;28;20198;-77
2023/07/01 01:30:36;;;;;;;9.00;5.50;;;;;;;14.00;100.00;98486.69;5019333;28;20663;-77
2023/07/01 01:33:06;;;;;;;8.53;5.13;;;;;;;13.94;100.00;98481.88;5043362;28;20203;-78
2023/07/01 01:35:34;;;;;;;10.00;5.87;;;;;;;13.83;100.00;98478.50;5042151;28;20193;-77
2023/07/01 01:38:07;;;;;;;7.87;4.87;;;;;;;13.95;100.00;98480.06;5042067;28;20213;-77
2023/07/01 01:40:43;;;;;;;9.87;5.70;;;;;;;14.10;100.00;98477.88;5047192;28;20201;-77
2023/07/01 01:43:20;;;;;;;8.00;5.50;;;;;;;14.22;100.00;98479.44;5070499;28;20218;-78
2023/07/01 01:45:50;;;;;;;10.77;5.97;;;;;;;14.30;100.00;98479.59;5119831;28;20198;-77
2023/07/01 01:48:19;;;;;;;8.17;5.90;;;;;;;14.17;100.00;98474.50;5118518;28;20218;-77
2023/07/01 01:50:52;;;;;;;9.20;6.07;;;;;;;13.99;100.00;98484.13;5129460;28;20282;-77
2023/07/01 01:53:26;;;;;;;11.60;7.20;;;;;;;14.01;100.00;98487.53;5133295;28;20193;-77
2023/07/01 01:55:55;;;;;;;10.47;6.73;;;;;;;14.21;100.00;98477.75;5123435;28;20484;-77
2023/07/01 01:58:27;;;;;;;9.73;6.50;;;;;;;14.36;100.00;98478.19;5123934;28;20252;-77
2023/07/01 02:00:56;;;;;;;7.93;7.13;;;;;;;14.33;100.00;98481.97;5040645;28;20212;-77
2023/07/01 02:03:25;;;;;;;13.03;8.40;;;;;;;14.36;100.00;98491.50;5043251;28;20261;-78
2023/07/01 02:05:54;;;;;;;7.03;6.20;;;;;;;14.19;100.00;98483.22;5045826;28;20208;-77
2023/07/01 02:08:24;;;;;;;8.00;5.87;;;;;;;13.95;100.00;98485.41;5045329;28;20217;-77
2023/07/01 02:10:53;;;;;;;7.07;6.10;;;;;;;13.96;100.00;98477.25;5050611;28;20256;-77
2023/07/01 02:13:21;;;;;;;9.17;6.07;;;;;;;13.84;100.00;98474.84;5038755;28;20703;-76
2023/07/01 02:15:51;;;;;;;8.93;5.87;;;;;;;13.95;100.00;98475.59;5061670;28;20197;-76
2023/07/01 02:18:20;;;;;;;7.90;6.30;;;;;;;13.98;100.00;98477.97;4996659;28;20228;-76
2023/07/01 02:20:48;;;;;;;10.53;5.67;;;;;;;13.92;100.00;98473.19;5046480;28;20239;-76
2023/07/01 02:23:18;;;;;;;8.80;6.10;;;;;;;14.02;100.00;98465.25;5047386;28;20201;-76
2023/07/01 02:25:47;;;;;;;12.30;6.70;;;;;;;13.84;100.00;98464.22;5045658;28;20496;-76
2023/07/01 02:28:16;;;;;;;7.63;6.40;;;;;;;13.98;100.00;98455.81;4988925;28;20247;-76
2023/07/01 02:30:44;;;;;;;10.70;7.17;;;;;;;14.02;100.00;98452.78;4988558;28;20203;-76
2023/07/01 02:33:15;;;;;;;9.63;7.37;;;;;;;14.04;100.00;98453.47;4990386;28;20213;-76
2023/07/01 02:35:46;;;;;;;9.23;7.63;;;;;;;14.33;100.00;98455.31;5001929;28;20200;-76
2023/07/01 02:38:15;;;;;;;10.67;7.87;;;;;;;14.33;100.00;98456.16;5066883;28;20220;-76
2023/07/01 02:40:46;;;;;;;9.80;8.60;;;;;;;14.29;100.00;98454.78;5064265;28;20196;-76
2023/07/01 02:43:15;;;;;;;10.70;8.60;;;;;;;14.20;100.00;98450.28;5065696;28;20236;-76
2023/07/01 02:45:44;;;;;;;9.40;8.47;;;;;;;14.20;100.00;98452.09;5062999;28;20200;-76
2023/07/01 02:48:12;;;;;;;9.10;8.03;;;;;;;14.14;100.00;98456.13;5066425;28;20198;-77
2023/07/01 02:50:43;;;;;;;9.23;7.87;;;;;;;14.03;100.00;98461.59;5062600;28;20203;-77
2023/07/01 02:53:15;;;;;;;13.87;7.93;;;;;;;14.08;100.00;98458.50;5103918;27;20198;-77
2023/07/01 02:55:45;;;;;;;9.73;7.57;;;;;;;14.03;100.00;98461.59;5128372;27;20190;-77
2023/07/01 02:58:13;;;;;;;8.63;7.50;;;;;;;14.18;100.00;98462.03;5112567;27;20688;-77
2023/07/01 03:00:41;;;;;;;9.57;7.77;;;;;;;14.03;100.00;98462.44;5126015;27;20672;-77
2023/07/01 03:03:10;;;;;;;8.87;7.93;;;;;;;13.88;100.00;98454.97;5127498;27;20645;-77
2023/07/01 03:05:39;;;;;;;9.73;7.90;;;;;;;13.82;100.00;98459.03;5125831;27;20719;-77
2023/07/01 03:08:09;;;;;;;15.20;8.13;;;;;;;13.92;100.00;98459.88;5123719;27;20203;-77
2023/07/01 03:10:37;;;;;;;12.33;7.90;;;;;;;13.89;100.00;98456.63;5046880;28;20195;-77
2023/07/01 03:13:10;;;;;;;11.70;7.90;;;;;;;13.81;100.00;98456.50;4969206;28;20305;-77
2023/07/01 03:15:39;;;;;;;10.03;8.07;;;;;;;13.81;100.00;98460.00;4957403;28;20203;-77
2023/07/01 03:18:07;;;;;;;11.23;8.13;;;;;;;13.79;100.00;98461.94;4968010;28;20253;-77
2023/07/01 03:20:36;;;;;;;13.20;8.17;;;;;;;13.81;100.00;98452.03;4915672;29;20201;-77
2023/07/01 03:23:08;;;;;;;11.70;7.97;;;;;;;13.63;100.00;98456.31;4913738;29;20273;-77
2023/07/01 03:25:38;;;;;;;9.13;7.93;;;;;;;13.71;100.00;98446.66;4922804;29;20209;-77
2023/07/01 03:28:08;;;;;;;12.13;7.60;;;;;;;13.82;100.00;98452.88;4945449;28;20765;-77
2023/07/01 03:30:37;;;;;;;12.30;8.23;;;;;;;13.86;100.00;98441.78;4982337;28;20194;-77
2023/07/01 03:33:06;;;;;;;8.47;7.33;;;;;;;13.87;100.00;98445.28;4983934;28;20195;-77
2023/07/01 03:35:35;;;;;;;10.13;7.43;;;;;;;13.81;100.00;98436.06;4990058;28;20206;-77
2023/07/01 03:38:04;;;;;;;9.70;7.53;;;;;;;13.90;100.00;98437.06;4995710;28;20212;-77
2023/07/01 03:40:34;;;;;;;12.13;8.03;;;;;;;13.86;100.00;98436.47;5041788;28;20218;-77
2023/07/01 03:43:06;;;;;;;10.70;8.07;;;;;;;13.75;100.00;98432.09;5044231;28;20256;-77
2023/07/01 03:45:37;;;;;;;12.00;7.80;;;;;;;13.73;100.00;98433.22;5045372;28;20225;-77
2023/07/01 03:48:07;;;;;;;12.80;7.60;;;;;;;13.89;100.00;98422.88;5049544;28;20274;-77
2023/07/01 03:50:35;;;;;;;21.20;7.70;;;;;;;13.87;100.00;98421.34;5062508;28;20580;-77
2023/07/01 03:53:05;;;;;;;13.60;7.73;;;;;;;13.93;100.00;98418.97;5066173;28;20196;-77
2023/07/01 03:55:36;;;;;;;13.70;7.33;;;;;;;13.90;100.00;98416.59;5064295;28;20230;-77
2023/07/01 03:58:07;;;;;;;12.90;7.23;;;;;;;13.97;100.00;98420.38;5104084;27;20649;-77
2023/07/01 04:00:36;;;;;;;11.23;7.83;;;;;;;13.92;100.00;98419.13;5124845;27;20187;-77
2023/07/01 04:03:08;;;;;;;11.77;7.63;;;;;;;13.99;100.00;98407.78;5129065;27;20228;-77
2023/07/01 04:05:40;;;;;;;10.07;6.97;;;;;;;14.03;100.00;98409.19;5127753;27;20194;-77
2023/07/01 04:08:09;;;;;;;11.07;7.00;;;;;;;13.95;100.00;98408.19;5127739;27;20200;-77
2023/07/01 04:10:41;;;;;;;11.33;7.30;;;;;;;14.01;100.00;98408.47;5123861;27;20198;-77
2023/07/01 04:13:10;;;;;;;9.17;7.10;;;;;;;13.94;100.00;98410.00;5126426;27;20182;-77
2023/07/01 04:15:39;;;;;;;10.13;6.73;;;;;;;13.90;100.00;98405.94;5122595;27;20195;-77
2023/07/01 04:18:08;;;;;;;12.47;7.37;;;;;;;13.97;100.00;98401.72;5125465;27;20235;-77
2023/07/01 04:20:37;;;;;;;10.83;7.40;;;;;;;14.07;100.00;98399.06;5126804;27;20232;-77
2023/07/01 04:23:05;;;;;;;14.43;7.63;;;;;;;13.93;100.00;98392.34;5045562;28;20691;-77
2023/07/01 04:25:34;;;;;;;8.10;6.93;;;;;;;14.00;100.00;98403.31;4996657;28;20322;-77
2023/07/01 04:28:05;;;;;;;10.33;7.73;;;;;;;14.04;100.00;98402.03;5038267;28;20215;-77
2023/07/01 04:30:33;;;;;;;11.43;7.53;;;;;;;14.10;100.00;98393.50;5041422;28;20280;-77
2023/07/01 04:33:02;;;;;;;9.27;8.10;;;;;;;14.09;100.00;98393.59;5044385;28;20337;-77
2023/07/01 04:35:30;;;;;;;9.97;7.30;;;;;;;14.09;100.00;98389.16;5040994;28;20188;-77
2023/07/01 04:37:59;;;;;;;9.50;8.03;;;;;;;14.04;100.00;98386.06;5043824;28;20193;-77
2023/07/01 04:40:27;;;;;;;10.97;7.87;;;;;;;14.04;100.00;98388.72;5038905;28;20217;-77
2023/07/01 04:42:56;;;;;;;11.17;7.80;;;;;;;13.97;100.00;98377.78;5041598;28;20316;-77
2023/07/01 04:45:28;;;;;;;9.70;7.80;;;;;;;14.09;100.00;98381.16;5047264;28;20285;-77
2023/07/01 04:47:56;;;;;;;13.77;7.97;;;;;;;13.99;100.00;98381.16;5087713;27;20218;-77
2023/07/01 04:50:25;;;;;;;13.83;8.13;;;;;;;14.18;100.00;98380.31;5126728;27;20209;-77
2023/07/01 04:52:53;;;;;;;8.83;7.77;;;;;;;14.05;100.00;98374.41;5123375;27;20198;-76
2023/07/01 04:55:23;;;;;;;12.53;8.27;;;;;;;14.06;100.00;98369.94;5124366;27;20190;-77
2023/07/01 04:57:55;;;;;;;12.77;8.07;;;;;;;14.20;100.00;98375.69;5120471;27;20190;-77
2023/07/01 05:00:26;;;;;;;12.47;8.10;;;;;;;14.15;100.00;98367.28;5121975;27;20214;-77
2023/07/01 05:02:56;;;;;;;9.00;7.63;;;;;;;14.11;100.00;98375.69;5126000;27;20232;-76
2023/07/01 05:05:26;;;;;;;10.33;8.50;;;;;;;14.02;100.00;98372.88;5118850;27;20198;-76
2023/07/01 05:07:55;;;;;;;10.40;8.27;;;;;;;14.10;100.00;98366.88;5126779;28;20194;-76
2023/07/01 05:10:24;;;;;;;11.00;9.30;;;;;;;14.06;100.00;98357.47;5127064;28;20281;-76
2023/07/01 05:12:53;;;;;;;12.27;8.53;;;;;;;14.21;100.00;98360.56;5121517;28;20202;-77
2023/07/01 05:15:21;;;;;;;9.73;7.80;;;;;;;14.15;100.00;98364.59;5124947;28;20235;-76
2023/07/01 05:17:50;;;;;;;11.03;8.87;;;;;;;14.15;100.00;98359.28;5089329;28;20198;-76
2023/07/01 05:20:21;;;;;;;12.13;8.37;;;;;;;14.27;100.00;98355.50;5122783;28;20213;-78
2023/07/01 05:22:50;;;;;;;11.70;9.03;;;;;;;14.37;100.00;98349.31;5122645;28;20202;-76
2023/07/01 05:25:19;;;;;;;10.13;8.83;;;;;;;14.35;100.00;98346.78;5116141;28;20218;-76
2023/07/01 05:27:47;;;;;;;14.07;9.13;;;;;;;14.48;100.00;98339.41;5127455;28;20191;-76
2023/07/01 05:30:16;;;;;;;10.10;8.20;;;;;;;14.59;100.00;98349.06;5123446;28;20193;-76
2023/07/01 05:32:45;;;;;;;11.80;8.30;;;;;;;14.77;100.00;98350.00;5129883;28;20195;-76
2023/07/01 05:35:14;;;;;;;12.07;8.43;;;;;;;14.65;100.00;98343.13;5123440;28;20198;-77
2023/07/01 05:37:44;;;;;;;14.70;8.93;;;;;;;14.73;100.00;98353.91;5136230;27;20220;-77
2023/07/01 05:40:13;;;;;;;13.87;8.40;;;;;;;14.85;100.00;98351.91;5127096;27;20225;-77
2023/07/01 05:42:42;;;;;;;12.50;8.40;;;;;;;14.99;100.00;98351.47;5130093;27;20226;-77
2023/07/01 05:45:11;;;;;;;10.90;7.90;;;;;;;15.09;100.00;98356.75;5128132;27;20193;-77
2023/07/01 05:47:39;;;;;;;10.13;7.20;;;;;;;15.22;100.00;98354.59;5131521;27;20213;-78
2023/07/01 05:50:08;;;;;;;13.67;7.93;;;;;;;15.23;100.00;98348.25;5126464;27;20190;-77
2023/07/01 05:52:40;;;;;;;9.80;7.53;;;;;;;15.39;100.00;98343.13;5130322;27;20198;-77
2023/07/01 05:55:12;;;;;;;11.37;7.77;;;;;;;15.53;100.00;98339.09;5128403;27;20211;-77
2023/07/01 05:57:41;;;;;;;9.83;7.63;;;;;;;15.65;100.00;98337.13;5128049;27;20194;-77
2023/07/01 06:00:10;;;;;;;8.53;7.30;;;;;;;15.66;100.00;98339.66;5127986;27;20214;-77
2023/07/01 06:02:40;;;;;;;9.63;7.40;;;;;;;15.96;100.00;98326.91;5131681;27;20220;-77
2023/07/01 06:05:12;;;;;;;8.77;6.60;;;;;;;16.02;100.00;98327.16;5128477;27;20190;-77
2023/07/01 06:07:40;;;;;;;9.77;6.70;;;;;;;16.19;100.00;98320.09;5129455;27;20186;-77
2023/07/01 06:10:11;;;;;;;10.77;7.13;;;;;;;16.51;100.00;98327.56;5131141;27;20698;-77
2023/07/01 06:12:40;;;;;;;10.03;6.50;;;;;;;16.70;100.00;98315.03;5131241;27;20564;-77
2023/07/01 06:15:08;;;;;;;7.07;6.00;;;;;;;16.66;100.00;98318.94;5131087;27;20190;-77
2023/07/01 06:17:37;;;;;;;7.83;5.80;;;;;;;16.48;100.00;98319.81;5075441;27;20220;-77
2023/07/01 06:20:06;;;;;;;7.33;5.93;;;;;;;16.71;100.00;98314.03;5125051;27;20214;-77
2023/07/01 06:22:35;;;;;;;7.77;5.77;;;;;;;16.90;100.00;98313.78;5136471;27;20254;-77
2023/07/01 06:25:04;;;;;;;10.00;5.57;;;;;;;16.99;100.00;98296.78;5132247;27;20208;-77
2023/07/01 06:27:34;;;;;;;5.93;5.27;;;;;;;17.30;100.00;98298.91;5125737;27;20218;-77
2023/07/01 06:30:03;;;;;;;7.43;4.63;;;;;;;17.49;100.00;98295.97;5129681;27;20201;-78
2023/07/01 06:32:32;;;;;;;7.37;4.93;;;;;;;17.58;100.00;98299.50;5045888;28;20205;-77
2023/07/01 06:35:01;;;;;;;7.67;4.47;;;;;;;17.50;100.00;98296.81;5047793;28;20189;-77
2023/07/01 06:37:31;;;;;;;8.83;4.77;;;;;;;17.59;100.00;98301.19;5046137;28;20303;-77
2023/07/01 06:39:59;;;;;;;7.30;4.60;;;;;;;17.83;100.00;98295.88;5039966;28;20293;-77
2023/07/01 06:42:31;;;;;;;6.23;3.90;;;;;;;18.09;100.00;98290.41;5045024;28;20288;-77
2023/07/01 06:45:02;;;;;;;4.43;4.03;;;;;;;18.03;100.00;98283.00;5044893;28;20199;-77
2023/07/01 06:47:31;;;;;;;6.53;3.93;;;;;;;18.10;100.00;98280.50;5045069;28;20193;-77
2023/07/01 06:50:00;;;;;;;7.50;4.20;;;;;;;18.25;100.00;98279.69;5060926;27;20202;-77
2023/07/01 06:52:28;;;;;;;7.80;4.43;;;;;;;18.42;100.00;98280.47;5068763;28;20215;-78
2023/07/01 06:54:57;;;;;;;5.80;4.07;;;;;;;18.41;100.00;98277.97;5063905;28;20211;-77
2023/07/01 06:57:25;;;;;;;9.03;4.03;;;;;;;18.69;100.00;98278.47;5071079;28;20238;-77
2023/07/01 06:59:54;;;;;;;4.50;3.50;;;;;;;18.55;100.00;98270.09;5066945;28;20224;-77
2023/07/01 07:02:24;;;;;;;10.10;4.73;;;;;;;18.61;100.00;98271.25;5060670;28;20204;-77
2023/07/01 07:04:53;;;;;;;6.33;4.00;;;;;;;18.74;100.00;98276.13;5060199;28;20281;-77
2023/07/01 07:07:22;;;;;;;7.07;3.50;;;;;;;18.80;100.00;98276.25;5064640;28;20192;-78
2023/07/01 07:09:50;;;;;;;6.23;3.40;;;;;;;18.77;100.00;98265.03;5081967;27;20190;-77
2023/07/01 07:12:19;;;;;;;9.20;3.60;;;;;;;19.00;100.00;98273.16;5116960;27;20655;-77
2023/07/01 07:14:47;;;;;;;5.97;3.00;;;;;;;19.10;100.00;98258.53;5122560;27;20231;-77
2023/07/01 07:17:16;;;;;;;8.57;3.33;;;;;;;19.09;100.00;98256.03;5126939;27;20191;-78
2023/07/01 07:19:46;;;;;;;5.23;3.00;;;;;;;19.29;100.00;98253.75;5128023;27;20216;-77
2023/07/01 07:22:16;;;;;;;6.07;2.90;;;;;;;19.36;100.00;98247.50;5125785;27;20622;-78
2023/07/01 07:24:44;;;;;;;6.27;3.03;;;;;;;19.77;100.00;98249.13;5130304;27;20207;-78
2023/07/01 07:27:13;;;;;;;6.53;3.20;;;;;;;19.69;100.00;98252.72;5130063;27;20679;-77
2023/07/01 07:29:42;;;;;;;10.67;2.67;;;;;;;19.90;100.00;98246.69;5121076;27;20221;-77
2023/07/01 07:32:10;;;;;;;6.87;2.93;;;;;;;19.65;100.00;98243.34;5127170;27;20194;-77
2023/07/01 07:34:40;;;;;;;5.30;3.00;;;;;;;19.64;100.00;98233.59;5129367;27;20194;-77
2023/07/01 07:37:10;;;;;;;4.07;2.37;;;;;;;19.82;100.00;98233.31;5131718;27;20273;-78
2023/07/01 07:39:38;;;;;;;6.07;2.73;;;;;;;19.95;100.00;98230.84;5128006;27;20203;-78
2023/07/01 07:42:07;;;;;;;5.57;2.87;;;;;;;19.95;100.00;98233.53;5133450;27;20230;-78
2023/07/01 07:44:37;;;;;;;11.37;2.77;;;;;;;19.92;100.00;98232.06;5110431;27;20190;-77
2023/07/01 07:47:06;;;;;;;5.77;2.43;;;;;;;20.05;100.00;98220.69;5127985;27;20374;-77
2023/07/01 07:49:35;;;;;;;4.37;2.53;;;;;;;20.23;100.00;98215.81;5105186;28;20225;-78
2023/07/01 07:52:04;;;;;;;10.40;2.60;;;;;;;20.47;98.37;98214.78;5108783;28;20206;-78
2023/07/01 07:54:34;;;;;;;7.23;3.00;;;;;;;20.86;97.51;98213.66;5101193;28;20222;-78
2023/07/01 07:57:03;;;;;;;5.73;2.80;;;;;;;20.82;94.66;98220.44;5107875;28;20199;-78
2023/07/01 07:59:31;;;;;;;6.00;3.30;;;;;;;20.70;91.89;98222.75;5103860;28;20191;-77
2023/07/01 08:02:01;;;;;;;5.27;3.00;;;;;;;20.32;91.82;98213.88;5102199;28;20287;-78
2023/07/01 08:04:30;;;;;;;7.27;3.33;;;;;;;20.32;97.60;98213.03;5111706;28;20187;-78
2023/07/01 08:06:59;;;;;;;5.37;3.13;;;;;;;20.10;97.68;98220.16;5104161;27;20229;-78
2023/07/01 08:09:28;;;;;;;10.13;3.20;;;;;;;19.98;99.88;98204.47;5127094;27;20194;-78
2023/07/01 08:11:59;;;;;;;7.93;3.70;;;;;;;19.91;100.00;98208.88;5123563;27;20205;-77
2023/07/01 08:14:27;;;;;;;7.40;3.47;;;;;;;20.47;100.00;98200.50;5123437;27;20205;-77
2023/07/01 08:16:57;;;;;;;9.50;3.37;;;;;;;20.51;99.50;98212.53;5128441;27;20194;-78
2023/07/01 08:19:25;;;;;;;5.77;2.97;;;;;;;20.64;96.99;98203.81;5131153;27;20701;-78
2023/07/01 08:21:55;;;;;;;6.60;3.13;;;;;;;20.47;100.00;98204.00;5123912;27;20241;-78
2023/07/01 08:24:25;;;;;;;12.10;3.30;;;;;;;20.15;100.00;98206.97;5088479;28;20806;-78
2023/07/01 08:26:53;;;;;;;7.30;3.40;;;;;;;20.04;100.00;98208.25;5083366;28;20203;-78
2023/07/01 08:29:24;;;;;;;6.30;3.00;;;;;;;20.05;100.00;98211.78;5080447;28;20274;-78
2023/07/01 08:31:52;;;;;;;8.97;3.63;;;;;;;19.79;100.00;98209.50;5082468;28;20194;-77
2023/07/01 08:34:21;;;;;;;6.47;3.27;;;;;;;19.73;100.00;98201.13;5087344;28;20188;-77
2023/07/01 08:36:49;;;;;;;4.03;2.77;;;;;;;19.77;100.00;98219.56;5084171;28;20202;-78
2023/07/01 08:39:18;;;;;;;7.27;3.10;;;;;;;19.66;100.00;98210.91;5087011;28;20797;-78
2023/07/01 08:41:51;;;;;;;8.53;3.53;;;;;;;19.64;100.00;98207.56;5084049;27;20233;-78
2023/07/01 08:44:20;;;;;;;8.07;3.00;;;;;;;19.68;100.00;98208.03;5112753;27;20312;-77
2023/07/01 08:46:59;;;;;;;7.17;3.30;;;;;;;19.85;100.00;98214.97;5128358;27;20206;-78
2023/07/01 08:49:30;;;;;;;6.90;3.27;;;;;;;19.89;100.00;98212.78;5129787;27;20643;-78
2023/07/01 08:52:05;;;;;;;6.83;3.67;;;;;;;19.66;100.00;98210.91;5127249;27;20664;-77
2023/07/01 08:54:37;;;;;;;6.53;3.17;;;;;;;19.60;100.00;98208.97;5125649;27;20216;-77
2023/07/01 08:57:06;;;;;;;5.57;3.70;;;;;;;19.49;100.00;98221.91;5121585;27;20202;-78
2023/07/01 08:59:35;;;;;;;7.37;3.30;;;;;;;19.81;100.00;98210.97;5121001;27;20217;-78
2023/07/01 09:02:06;;;;;;;6.00;3.10;;;;;;;19.95;100.00;98210.19;5127225;27;20229;-77
2023/07/01 09:04:39;;;;;;;8.53;3.13;;;;;;;20.12;100.00;98215.41;5130809;27;20218;-78
2023/07/01 09:07:10;;;;;;;5.10;2.70;;;;;;;20.08;100.00;98211.44;5120457;27;20190;-78
2023/07/01 09:09:39;;;;;;;7.33;3.17;;;;;;;19.81;100.00;98235.16;5123560;28;20202;-78
2023/07/01 09:12:08;;;;;;;6.07;3.20;;;;;;;19.68;100.00;98211.56;5122953;27;20214;-77
2023/07/01 09:14:58;;;;;;;8.07;3.27;;;;;;;19.89;100.00;98207.41;5125089;28;20196;-77
2023/07/01 09:17:30;;;;;;;4.53;2.70;;;;;;;19.64;100.00;98207.56;5127964;28;20235;-77
2023/07/01 09:20:00;;;;;;;5.40;2.83;;;;;;;19.57;100.00;98214.66;5127382;28;20197;-78
2023/07/01 09:22:30;;;;;;;6.17;3.07;;;;;;;19.68;100.00;98208.88;5125912;28;20684;-77
2023/07/01 09:24:59;;;;;;;6.60;2.77;;;;;;;19.66;100.00;98231.56;5122932;28;20201;-77
2023/07/01 09:27:40;;;;;;;3.63;2.47;;;;;;;19.70;100.00;98217.63;5124166;28;20391;-77
2023/07/01 09:30:25;;;;;;;4.70;3.00;;;;;;;19.73;100.00;98205.66;5126451;28;20191;-77
2023/07/01 09:33:10;;;;;;;8.43;3.00;;;;;;;19.64;100.00;98204.06;5131995;28;20243;-78
2023/07/01 09:35:45;;;;;;;5.80;2.40;;;;;;;19.63;100.00;98210.44;5122079;28;20198;-77
2023/07/01 09:38:14;;;;;;;8.33;2.90;;;;;;;19.73;100.00;98206.50;5126505;28;20201;-77
2023/07/01 09:40:42;;;;;;;6.37;2.60;;;;;;;19.93;100.00;98204.16;5126683;28;20297;-77
2023/07/01 09:43:12;;;;;;;3.50;2.60;;;;;;;19.89;100.00;98204.72;5117508;28;20233;-77
2023/07/01 09:45:54;;;;;;;5.83;2.53;;;;;;;19.82;100.00;98228.78;5123285;28;20194;-77
2023/07/01 09:48:25;;;;;;;7.63;2.60;;;;;;;19.76;100.00;98202.59;5126845;28;20187;-77
2023/07/01 09:51:02;;;;;;;6.67;2.60;;;;;;;19.72;100.00;98195.94;5119432;28;20190;-78
2023/07/01 09:53:34;;;;;;;5.33;2.80;;;;;;;19.38;100.00;98193.63;5122772;28;20209;-77
2023/07/01 09:56:04;;;;;;;4.37;2.80;;;;;;;19.46;100.00;98196.25;5119939;28;20202;-77
2023/07/01 09:58:34;;;;;;;6.17;2.43;;;;;;;19.44;100.00;98198.28;5124156;28;20427;-78
2023/07/01 10:01:03;;;;;;;7.67;3.30;;;;;;;19.29;100.00;98200.88;5130038;28;20206;-76
2023/07/01 10:03:36;;;;;;;5.23;3.10;;;;;;;19.38;100.00;98196.28;5127131;28;20214;-77
2023/07/01 10:06:07;;;;;;;6.47;3.10;;;;;;;19.37;100.00;98200.00;5129892;28;20224;-77
2023/07/01 10:08:35;;;;;;;5.73;3.03;;;;;;;19.22;100.00;98199.09;5126580;28;20233;-76
2023/07/01 10:11:07;;;;;;;7.77;3.10;;;;;;;19.20;100.00;98193.88;5125414;28;20194;-77
2023/07/01 10:13:42;;;;;;;5.83;3.00;;;;;;;19.23;100.00;98188.19;5118146;28;20225;-77
2023/07/01 10:16:11;;;;;;;6.73;3.00;;;;;;;18.98;100.00;98200.88;5126037;28;20198;-77
2023/07/01 10:18:41;;;;;;;7.43;2.77;;;;;;;18.91;100.00;98197.22;5125741;28;20245;-77
2023/07/01 10:21:30;;;;;;;6.57;3.30;;;;;;;19.05;100.00;98196.50;5122711;28;20195;-77
2023/07/01 10:24:00;;;;;;;6.17;2.87;;;;;;;18.99;100.00;98189.13;5125648;27;20214;-77
2023/07/01 10:26:47;;;;;;;6.10;3.20;;;;;;;19.18;100.00;98190.53;5124640;27;20201;-77
2023/07/01 10:29:52;;;;;;;7.93;3.17;;;;;;;18.89;100.00;98191.19;5119502;27;20324;-77
2023/07/01 10:32:32;;;;;;;7.03;3.37;;;;;;;18.93;100.00;98184.50;5136568;27;20251;-77
2023/07/01 10:35:15;;;;;;;5.43;2.87;;;;;;;18.90;100.00;98192.03;5133925;27;20190;-78
2023/07/01 10:38:05;;;;;;;5.20;3.20;;;;;;;18.99;100.00;98189.13;5127659;27;20207;-77
2023/07/01 10:40:44;;;;;;;5.50;3.07;;;;;;;18.86;100.00;98191.56;5131910;27;20198;-79
2023/07/01 10:43:26;;;;;;;6.63;3.80;;;;;;;18.84;100.00;98196.25;5127385;27;20234;-77
2023/07/01 10:46:23;;;;;;;15.83;3.60;;;;;;;18.85;100.00;98196.09;5125531;27;20202;-78
2023/07/01 10:49:09;;;;;;;7.40;3.53;;;;;;;18.78;100.00;98191.59;5096516;27;20198;-78
2023/07/01 10:52:09;;;;;;;7.73;3.63;;;;;;;18.73;100.00;98191.28;5129887;27;20187;-78
2023/07/01 10:54:49;;;;;;;6.53;3.70;;;;;;;18.95;100.00;98198.56;5072639;28;20224;-78
2023/07/01 10:57:18;;;;;;;6.77;4.00;;;;;;;18.87;100.00;98196.75;5061788;28;20227;-78
2023/07/01 10:59:47;;;;;;;7.00;4.00;;;;;;;18.74;100.00;98193.78;5066653;28;20199;-78
2023/07/01 11:02:37;;;;;;;7.73;3.90;;;;;;;18.81;100.00;98197.44;5068136;28;20244;-78
2023/07/01 11:05:08;;;;;;;6.07;3.87;;;;;;;19.01;100.00;98194.31;5062920;28;20196;-78
2023/07/01 11:07:41;;;;;;;8.23;4.23;;;;;;;18.90;100.00;98184.81;5065763;28;20231;-78
2023/07/01 11:10:10;;;;;;;5.40;4.10;;;;;;;18.72;100.00;98181.53;5068278;28;20204;-78
2023/07/01 11:12:39;;;;;;;6.80;4.30;;;;;;;18.93;100.00;98183.66;5092694;27;20191;-78
2023/07/01 11:15:10;;;;;;;8.30;4.00;;;;;;;19.02;100.00;98185.28;5129742;27;20198;-78
2023/07/01 11:17:52;;;;;;;7.97;4.27;;;;;;;18.87;100.00;98185.19;5047463;27;20194;-78
2023/07/01 11:20:21;;;;;;;5.37;3.80;;;;;;;18.90;100.00;98187.50;5129830;27;20197;-78
2023/07/01 11:22:52;;;;;;;14.50;5.03;;;;;;;19.00;100.00;98185.44;5125968;27;20242;-78
2023/07/01 11:25:25;;;;;;;9.33;4.33;;;;;;;19.00;100.00;98187.28;5135264;27;20566;-78
2023/07/01 11:27:56;;;;;;;7.93;4.50;;;;;;;18.82;100.00;98188.41;5096431;27;20235;-78
2023/07/01 11:30:29;;;;;;;5.07;3.47;;;;;;;18.47;100.00;98191.50;5132136;27;20190;-77
2023/07/01 11:33:11;;;;;;;6.17;3.80;;;;;;;18.55;100.00;98189.63;5122424;27;20194;-77
2023/07/01 11:35:52;;;;;;;6.33;4.00;;;;;;;18.39;100.00;98194.19;5134564;27;20194;-77
2023/07/01 11:38:26;;;;;;;6.97;4.00;;;;;;;18.59;100.00;98196.31;5125542;27;20222;-78
2023/07/01 11:40:55;;;;;;;7.40;3.57;;;;;;;18.56;100.00;98196.66;5124110;27;20198;-78